Time;durP1;ratioP1;P1;durP2;ratioP2;P2;SDS_P1;SDS_P2;PMS_P1;PMS_P2;Temp;Humidity;BMP_temperature;BMP_pressure;BME280_temperature;BME280_humidity;BME280_pressure;Samples;Min_cycle;Max_cycle;Signal;HPM_P1;HPM_P2
2023/01/13 00:01:11;;;;;;;18.15;5.15;;;;;;;8.48;99.05;100335.66;5094467;28;20102;-65
2023/01/13 00:03:37;;;;;;;16.35;5.38;;;;;;;8.36;99.45;100329.28;5093778;28;20028;-65
2023/01/13 00:06:05;;;;;;;21.38;5.32;;;;;;;8.31;99.18;100327.88;5105981;28;20428;-66
2023/01/13 00:08:31;;;;;;;16.45;5.53;;;;;;;8.33;98.92;100339.25;5113795;28;20128;-65
2023/01/13 00:10:57;;;;;;;14.98;5.03;;;;;;;8.39;98.11;100337.09;5095229;28;20474;-65
2023/01/13 00:13:26;;;;;;;18.63;5.88;;;;;;;8.28;98.62;100344.81;5094352;28;20478;-65
2023/01/13 00:15:56;;;;;;;18.85;5.97;;;;;;;8.28;97.34;100338.66;5095485;28;20051;-65
2023/01/13 00:18:21;;;;;;;22.27;6.45;;;;;;;8.22;98.51;100334.59;5106948;28;20023;-65
2023/01/13 00:20:46;;;;;;;24.70;6.43;;;;;;;8.20;97.61;100328.53;5083736;28;20085;-65
2023/01/13 00:23:12;;;;;;;23.27;6.82;;;;;;;8.27;96.73;100323.72;5078808;28;20031;-66
2023/01/13 00:25:38;;;;;;;21.85;7.05;;;;;;;8.16;96.48;100319.91;5090402;28;20498;-66
2023/01/13 00:28:03;;;;;;;20.42;6.18;;;;;;;8.13;97.21;100303.38;5091721;28;20051;-65
2023/01/13 00:30:29;;;;;;;23.27;6.75;;;;;;;8.11;97.01;100305.25;5058206;28;20081;-65
2023/01/13 00:32:54;;;;;;;17.50;5.88;;;;;;;8.05;96.73;100309.13;5093815;28;20054;-65
2023/01/13 00:35:20;;;;;;;18.88;6.47;;;;;;;8.05;95.63;100311.78;5069056;28;20023;-66
2023/01/13 00:37:45;;;;;;;27.63;6.82;;;;;;;8.01;96.52;100304.13;5110117;28;20035;-66
2023/01/13 00:40:12;;;;;;;20.25;6.55;;;;;;;8.04;94.98;100298.66;5084430;28;20122;-66
2023/01/13 00:45:21;;;;;;;24.17;6.82;;;;;;;7.91;95.48;100290.59;5075076;28;20043;-66
2023/01/13 00:47:46;;;;;;;29.48;7.85;;;;;;;7.95;95.44;100290.31;5093052;28;20016;-65
2023/01/13 00:50:12;;;;;;;27.83;7.15;;;;;;;8.02;94.49;100282.00;5093245;28;20039;-65
2023/01/13 00:52:38;;;;;;;22.63;6.78;;;;;;;7.94;96.43;100283.31;5091785;28;20027;-65
2023/01/13 00:55:04;;;;;;;22.80;6.95;;;;;;;7.88;97.09;100282.81;5111487;28;20031;-65
2023/01/13 00:57:31;;;;;;;22.40;6.47;;;;;;;7.88;97.00;100282.81;5112256;28;20027;-66
2023/01/13 00:59:57;;;;;;;23.15;7.88;;;;;;;7.88;96.49;100281.06;5095243;28;20026;-65
2023/01/13 01:02:22;;;;;;;29.65;7.28;;;;;;;7.94;95.92;100285.09;5095093;28;20382;-65
2023/01/13 01:04:49;;;;;;;25.23;6.82;;;;;;;7.92;97.04;100290.50;5111109;28;20023;-65
2023/01/13 01:07:14;;;;;;;25.92;6.82;;;;;;;7.96;96.10;100293.81;5112348;28;20012;-65
2023/01/13 01:09:39;;;;;;;26.83;7.68;;;;;;;7.87;97.22;100294.38;5094349;28;20051;-65
2023/01/13 01:12:05;;;;;;;22.60;6.90;;;;;;;7.90;96.88;100302.13;5094189;28;20059;-66
2023/01/13 01:14:31;;;;;;;22.70;6.32;;;;;;;7.90;96.89;100304.78;5077656;28;20035;-66
2023/01/13 01:16:58;;;;;;;24.00;6.88;;;;;;;7.83;98.23;100306.09;5094080;28;20047;-65
2023/01/13 01:19:24;;;;;;;25.98;7.53;;;;;;;7.97;96.40;100301.66;5112796;28;20531;-65
2023/01/13 01:21:50;;;;;;;29.52;6.80;;;;;;;8.02;96.66;100303.19;5112531;28;20047;-65
2023/01/13 01:24:15;;;;;;;30.08;7.25;;;;;;;7.92;97.45;100297.59;5110959;28;20034;-65
2023/01/13 01:26:41;;;;;;;22.42;7.30;;;;;;;7.97;97.18;100295.50;5093930;28;20405;-65
2023/01/13 01:29:06;;;;;;;30.02;7.15;;;;;;;8.05;95.42;100300.34;5110650;28;20481;-65
2023/01/13 01:31:32;;;;;;;22.77;6.63;;;;;;;7.93;96.98;100300.13;5077447;28;20024;-66
2023/01/13 01:33:58;;;;;;;28.67;6.90;;;;;;;7.92;95.68;100300.25;5112170;28;20455;-65
2023/01/13 01:36:25;;;;;;;27.02;7.28;;;;;;;7.97;94.87;100311.38;5112324;28;20051;-65
2023/01/13 01:38:51;;;;;;;27.48;7.28;;;;;;;7.92;95.01;100298.44;5086987;28;20430;-66
2023/01/13 01:41:22;;;;;;;24.73;6.60;;;;;;;7.87;95.32;100303.16;5098066;28;20062;-66
2023/01/13 01:43:58;;;;;;;;;;;;;;;8.19;94.02;100310.94;5096492;28;20032;-65
2023/01/13 01:46:41;;;;;;;21.42;7.10;;;;;;;7.88;94.07;100307.53;5093047;28;19915;-66
2023/01/13 01:49:12;;;;;;;31.08;8.07;;;;;;;7.84;93.42;100313.94;5099830;28;20251;-65
2023/01/13 01:51:44;;;;;;;27.02;7.70;;;;;;;7.80;92.75;100303.66;5108599;28;20044;-65
2023/01/13 01:54:14;;;;;;;26.35;8.00;;;;;;;7.74;93.18;100310.16;5091030;28;20094;-65
2023/01/13 01:56:42;;;;;;;28.38;8.52;;;;;;;7.66;93.10;100280.66;5091910;28;20024;-66
2023/01/13 01:59:07;;;;;;;33.55;8.88;;;;;;;7.76;90.46;100310.88;5092313;28;20030;-65
2023/01/13 02:01:37;;;;;;;33.80;8.93;;;;;;;7.79;89.11;100308.06;5091910;28;20099;-65
2023/01/13 02:04:10;;;;;;;29.70;8.60;;;;;;;7.64;92.29;100304.53;5092847;28;20024;-65
2023/01/13 02:06:36;;;;;;;28.48;8.50;;;;;;;7.56;92.23;100293.59;5091607;28;20035;-66
2023/01/13 02:09:02;;;;;;;34.40;9.38;;;;;;;7.54;89.73;100303.41;5089695;28;20038;-65
2023/01/13 02:14:15;;;;;;;31.25;9.00;;;;;;;7.58;89.05;100302.25;5091997;28;20082;-65
2023/01/13 02:16:51;;;;;;;38.75;9.30;;;;;;;7.64;88.58;100299.25;5093365;28;20020;-65
2023/01/13 02:19:34;;;;;;;38.63;9.50;;;;;;;7.59;89.71;100300.47;5092713;28;20028;-67
2023/01/13 02:22:35;;;;;;;34.42;9.55;;;;;;;7.73;88.26;100305.78;5100893;28;20032;-65
2023/01/13 02:25:06;;;;;;;34.03;9.13;;;;;;;7.56;88.30;100305.94;5111213;28;20023;-65
2023/01/13 02:27:54;;;;;;;36.20;9.25;;;;;;;7.53;89.42;100303.47;5111740;28;20390;-65
2023/01/13 02:34:16;;;;;;;37.70;10.38;;;;;;;7.62;89.78;100308.25;5109034;28;20034;-65
2023/01/13 02:36:55;;;;;;;34.53;8.75;;;;;;;7.49;89.88;100316.88;5097100;28;20024;-66
2023/01/13 02:39:53;;;;;;;32.85;8.77;;;;;;;7.50;90.53;100305.38;5095120;28;20030;-65
2023/01/13 02:45:51;;;;;;;37.72;9.23;;;;;;;7.61;90.20;100295.94;5110999;28;20038;-66
2023/01/13 02:48:21;;;;;;;33.50;8.57;;;;;;;7.62;89.77;100289.72;5115531;28;20054;-65
2023/01/13 02:50:54;;;;;;;40.28;8.18;;;;;;;7.46;91.49;100277.38;5097168;28;20413;-65
2023/01/13 02:53:26;;;;;;;29.20;9.38;;;;;;;7.56;91.51;100285.66;5114905;28;20394;-65
2023/01/13 02:55:57;;;;;;;34.53;9.13;;;;;;;7.40;91.39;100275.09;5093748;28;20022;-65
2023/01/13 02:58:31;;;;;;;28.60;8.48;;;;;;;7.58;91.41;100283.72;5095000;28;20024;-65
2023/01/13 03:00:56;;;;;;;31.83;8.50;;;;;;;7.59;91.74;100268.69;5095271;28;20020;-65
2023/01/13 03:03:22;;;;;;;26.98;8.55;;;;;;;7.56;92.26;100263.59;5088623;28;20531;-65
2023/01/13 03:05:51;;;;;;;27.80;7.47;;;;;;;7.60;91.40;100273.06;5086511;28;20028;-65
2023/01/13 03:08:30;;;;;;;26.65;8.52;;;;;;;7.71;90.37;100262.69;5106190;28;20023;-65
2023/01/13 03:11:04;;;;;;;36.13;8.93;;;;;;;7.65;90.68;100260.44;5108756;28;20497;-65
2023/01/13 03:14:07;;;;;;;30.17;7.82;;;;;;;7.77;89.48;100278.19;5091432;28;20040;-65
2023/01/13 03:17:09;;;;;;;31.35;8.57;;;;;;;7.69;90.70;100289.25;5072441;28;20550;-65
2023/01/13 03:19:50;;;;;;;27.10;7.45;;;;;;;7.58;90.91;100253.78;5072134;28;20036;-65
2023/01/13 03:22:30;;;;;;;30.20;8.00;;;;;;;7.69;90.26;100256.63;5055424;28;20063;-65
2023/01/13 03:25:17;;;;;;;28.05;8.30;;;;;;;8.00;88.17;100270.63;5089045;28;20085;-66
2023/01/13 03:27:53;;;;;;;28.75;7.00;;;;;;;7.76;89.19;100247.38;5092243;28;20036;-66
2023/01/13 03:30:28;;;;;;;26.02;6.50;;;;;;;7.75;88.44;100266.84;5074977;28;20595;-65
2023/01/13 03:33:01;;;;;;;22.92;6.80;;;;;;;7.88;87.19;100261.66;5075085;28;20398;-66
2023/01/13 03:35:33;;;;;;;22.17;7.05;;;;;;;7.85;87.09;100278.59;5091602;28;20531;-65
2023/01/13 03:38:09;;;;;;;20.23;5.50;;;;;;;7.80;86.28;100259.47;5092032;28;20047;-66
2023/01/13 03:40:41;;;;;;;16.02;4.88;;;;;;;7.80;85.14;100256.00;5091446;28;20040;-65
2023/01/13 03:46:05;;;;;;;10.85;4.60;;;;;;;7.76;81.99;100263.25;5107568;28;20046;-65
2023/01/13 03:48:35;;;;;;;7.50;3.47;;;;;;;7.86;81.05;100263.56;5104008;28;20572;-65
2023/01/13 03:51:12;;;;;;;;;;;;;;;7.88;82.55;100280.19;5094160;28;20052;-65
2023/01/13 03:54:07;;;;;;;9.60;4.03;;;;;;;7.79;82.59;100265.69;5097200;28;20244;-65
2023/01/13 03:56:40;;;;;;;8.25;3.30;;;;;;;7.78;81.96;100253.44;5093714;28;20035;-65
2023/01/13 03:59:10;;;;;;;8.35;3.83;;;;;;;7.71;81.84;100241.53;5112632;28;20035;-65
2023/01/13 04:02:02;;;;;;;6.85;3.70;;;;;;;7.69;83.63;100259.28;5093434;28;20516;-65
2023/01/13 04:04:37;;;;;;;11.13;4.03;;;;;;;7.63;84.73;100273.72;5096034;28;20386;-65
2023/01/13 04:07:17;;;;;;;8.35;4.50;;;;;;;7.68;85.60;100274.31;5104860;28;20056;-65
2023/01/13 04:09:51;;;;;;;11.77;4.47;;;;;;;7.60;86.23;100268.63;5094028;28;20036;-65
2023/01/13 04:12:23;;;;;;;12.27;4.57;;;;;;;7.67;85.48;100277.03;5101566;28;20064;-67
2023/01/13 04:14:50;;;;;;;12.68;4.60;;;;;;;7.55;86.44;100260.09;5107702;28;20046;-65
2023/01/13 04:17:17;;;;;;;10.02;4.25;;;;;;;7.50;87.40;100268.34;5112742;28;20043;-65
2023/01/13 04:19:42;;;;;;;11.90;4.63;;;;;;;7.44;89.18;100274.00;5112873;28;20038;-65
2023/01/13 04:22:15;;;;;;;12.00;4.78;;;;;;;7.40;89.83;100277.75;5099566;28;20027;-65
2023/01/13 04:24:41;;;;;;;11.15;5.15;;;;;;;7.38;90.44;100297.28;5110195;28;20032;-65
2023/01/13 04:27:06;;;;;;;14.05;6.13;;;;;;;7.41;90.75;100278.59;5094192;28;20058;-65
2023/01/13 04:29:34;;;;;;;11.77;5.72;;;;;;;7.38;91.68;100282.28;5094162;28;20080;-65
2023/01/13 04:32:00;;;;;;;11.60;5.13;;;;;;;7.34;92.01;100286.03;5092953;28;20043;-66
2023/01/13 04:34:25;;;;;;;14.50;4.82;;;;;;;7.33;92.46;100286.16;5089323;28;20168;-65
2023/01/13 04:36:51;;;;;;;14.23;5.43;;;;;;;7.35;92.40;100287.75;5110370;28;20042;-65
2023/01/13 04:39:16;;;;;;;17.83;5.57;;;;;;;7.34;92.87;100280.75;5094387;28;20031;-65
2023/01/13 04:41:57;;;;;;;18.90;5.32;;;;;;;7.30;93.55;100286.34;5079755;28;20056;-65
2023/01/13 04:44:22;;;;;;;21.15;5.88;;;;;;;7.37;93.68;100283.22;5105236;28;20031;-65
2023/01/13 04:46:48;;;;;;;16.65;5.68;;;;;;;7.31;93.60;100285.38;5081749;28;20423;-65
2023/01/13 04:49:13;;;;;;;17.92;5.75;;;;;;;7.42;92.91;100296.19;5098324;28;20036;-65
2023/01/13 04:51:43;;;;;;;22.10;5.95;;;;;;;7.35;93.79;100292.19;5093286;28;20116;-65
2023/01/13 04:54:10;;;;;;;17.67;5.43;;;;;;;7.34;94.30;100277.25;5107305;28;20035;-65
2023/01/13 04:56:36;;;;;;;14.82;5.10;;;;;;;7.36;93.38;100280.69;5074578;28;20478;-65
2023/01/13 04:59:01;;;;;;;17.88;6.35;;;;;;;7.38;93.55;100289.34;5101430;28;20055;-65
2023/01/13 05:01:27;;;;;;;17.42;6.20;;;;;;;7.41;92.89;100278.59;5078078;28;20019;-65
2023/01/13 05:03:53;;;;;;;18.73;6.30;;;;;;;7.40;92.90;100280.38;5103705;28;20031;-65
2023/01/13 05:06:19;;;;;;;20.33;6.20;;;;;;;7.38;93.11;100261.13;5111705;28;20602;-65
2023/01/13 05:08:44;;;;;;;17.15;6.38;;;;;;;7.33;93.42;100268.47;5094398;28;20136;-65
2023/01/13 05:19:21;;;;;;;17.17;5.90;;;;;;;7.27;93.17;100247.69;5092604;28;20319;-66
2023/01/13 05:27:15;;;;;;;12.90;5.13;;;;;;;7.16;93.15;100269.47;5112785;28;20449;-65
2023/01/13 05:29:41;;;;;;;19.63;6.25;;;;;;;7.18;92.62;100267.59;5093850;28;20067;-65
2023/01/13 05:32:07;;;;;;;14.07;5.80;;;;;;;7.12;92.78;100273.25;5094066;28;20034;-65
2023/01/13 05:34:32;;;;;;;19.02;6.05;;;;;;;7.14;92.85;100267.84;5093663;28;20539;-65
2023/01/13 05:36:58;;;;;;;18.45;5.10;;;;;;;7.11;92.31;100271.50;5112390;28;20015;-65
2023/01/13 05:39:25;;;;;;;11.68;5.55;;;;;;;7.12;92.31;100275.00;5076675;28;20489;-65
2023/01/13 05:44:47;;;;;;;17.65;5.28;;;;;;;7.07;92.34;100285.88;5038769;28;20041;-65
2023/01/13 05:47:13;;;;;;;16.20;6.88;;;;;;;7.01;92.64;100291.50;5091941;28;20506;-65
2023/01/13 05:49:43;;;;;;;18.88;5.78;;;;;;;7.06;91.42;100289.47;5073554;28;20059;-65
2023/01/13 05:52:11;;;;;;;16.77;6.20;;;;;;;7.04;92.02;100304.56;5075811;28;20056;-65
2023/01/13 05:54:39;;;;;;;17.85;5.25;;;;;;;7.14;90.96;100289.84;5111815;28;20032;-65
2023/01/13 05:57:05;;;;;;;19.27;5.40;;;;;;;7.09;90.51;100297.22;5074077;28;20020;-65
2023/01/13 05:59:30;;;;;;;15.50;5.38;;;;;;;7.05;90.60;100295.66;5091473;28;20096;-65
2023/01/13 06:01:56;;;;;;;19.67;6.28;;;;;;;7.07;90.13;100307.03;5092545;28;20108;-65
2023/01/13 06:04:22;;;;;;;19.63;5.60;;;;;;;7.02;90.10;100304.63;5111280;28;20020;-65
2023/01/13 06:06:48;;;;;;;23.48;6.13;;;;;;;6.96;91.22;100317.34;5111764;28;20034;-65
2023/01/13 06:09:16;;;;;;;18.02;5.97;;;;;;;6.94;91.48;100306.00;5076034;28;20027;-65
2023/01/13 06:11:42;;;;;;;20.60;5.70;;;;;;;6.88;91.33;100315.13;5077060;28;20043;-65
2023/01/13 06:14:08;;;;;;;20.02;6.20;;;;;;;6.84;91.45;100324.19;5093377;28;20371;-65
2023/01/13 06:16:34;;;;;;;21.20;5.30;;;;;;;6.87;90.83;100323.16;5093729;28;20028;-65
2023/01/13 06:19:00;;;;;;;18.20;6.63;;;;;;;6.83;91.23;100319.84;5093669;28;20147;-65
2023/01/13 06:21:26;;;;;;;19.92;5.57;;;;;;;6.79;92.10;100332.38;5111642;28;20034;-65
2023/01/13 06:23:51;;;;;;;22.95;5.95;;;;;;;6.72;92.24;100325.72;5092329;28;20034;-65
2023/01/13 06:26:20;;;;;;;16.90;6.53;;;;;;;6.78;91.67;100340.38;5111704;28;20173;-65
2023/01/13 06:28:46;;;;;;;20.73;5.80;;;;;;;6.79;91.49;100339.44;5111737;28;20027;-65
2023/01/13 06:31:12;;;;;;;16.23;5.47;;;;;;;6.87;90.94;100325.78;5083470;28;20032;-65
2023/01/13 06:33:44;;;;;;;17.67;6.10;;;;;;;6.80;90.71;100347.28;5089848;28;20089;-65
2023/01/13 06:36:15;;;;;;;16.50;5.82;;;;;;;6.82;90.33;100341.91;5091425;28;20038;-65
2023/01/13 06:38:45;;;;;;;16.90;5.55;;;;;;;6.89;89.78;100347.72;5094232;28;20028;-65
2023/01/13 06:41:10;;;;;;;16.70;5.43;;;;;;;6.90;89.10;100346.78;5094190;28;20498;-65
2023/01/13 06:43:37;;;;;;;23.05;5.93;;;;;;;6.85;90.46;100351.44;5088016;28;20082;-65
2023/01/13 06:46:05;;;;;;;22.52;5.80;;;;;;;6.91;88.98;100341.41;5093222;28;20048;-65
2023/01/13 06:48:33;;;;;;;19.27;6.50;;;;;;;6.99;87.98;100347.09;5093736;28;20020;-65
2023/01/13 06:51:02;;;;;;;22.55;5.85;;;;;;;6.95;88.30;100342.09;5080652;28;20060;-65
2023/01/13 06:53:30;;;;;;;16.38;5.32;;;;;;;7.03;87.88;100339.88;5110046;28;20050;-65
2023/01/13 06:55:56;;;;;;;22.85;5.90;;;;;;;6.94;88.25;100335.06;5093594;28;20043;-65
2023/01/13 06:58:22;;;;;;;26.23;6.53;;;;;;;7.07;87.68;100343.19;5111041;28;20447;-65
2023/01/13 07:00:50;;;;;;;16.80;6.45;;;;;;;7.06;88.50;100331.75;5111408;28;20394;-65
2023/01/13 07:03:18;;;;;;;17.10;6.75;;;;;;;7.12;87.46;100347.28;5093339;28;20505;-65
2023/01/13 07:05:51;;;;;;;19.55;6.00;;;;;;;7.13;87.92;100350.78;5095753;28;20474;-65
2023/01/13 07:08:16;;;;;;;20.77;6.15;;;;;;;7.07;87.54;100351.97;5090757;28;20467;-65
2023/01/13 07:10:42;;;;;;;17.27;6.78;;;;;;;7.05;87.26;100357.31;5089577;28;20027;-65
2023/01/13 07:16:04;;;;;;;20.33;6.63;;;;;;;7.10;85.83;100374.75;5091254;28;20026;-65
2023/01/13 07:18:32;;;;;;;22.75;7.28;;;;;;;7.02;86.11;100368.06;5090985;28;20052;-65
2023/01/13 07:21:08;;;;;;;20.38;7.18;;;;;;;6.94;86.40;100365.03;5092329;28;20031;-65
2023/01/13 07:23:36;;;;;;;19.02;5.78;;;;;;;7.04;84.60;100374.13;5095878;28;20394;-65
2023/01/13 07:26:02;;;;;;;21.55;5.88;;;;;;;6.95;85.80;100372.00;5114631;28;20046;-65
2023/01/13 07:28:29;;;;;;;20.80;6.20;;;;;;;7.03;84.91;100363.66;5096296;28;20421;-65
2023/01/13 07:30:55;;;;;;;18.90;6.07;;;;;;;6.93;84.98;100370.38;5096201;28;20019;-64
2023/01/13 07:33:21;;;;;;;16.67;5.97;;;;;;;6.88;85.65;100361.84;5114523;28;20026;-65
2023/01/13 07:35:48;;;;;;;16.23;6.95;;;;;;;6.86;84.83;100353.19;5114220;28;20019;-65
2023/01/13 07:38:14;;;;;;;20.95;6.32;;;;;;;6.85;86.21;100370.81;5095140;28;21753;-65
2023/01/13 07:40:40;;;;;;;18.75;6.35;;;;;;;6.89;84.66;100382.94;5105708;28;20089;-65
2023/01/13 07:45:57;;;;;;;23.83;5.97;;;;;;;6.64;85.00;100340.28;5114507;28;20077;-65
2023/01/13 07:48:23;;;;;;;21.50;6.65;;;;;;;6.83;85.54;100384.13;5113035;28;20047;-65
2023/01/13 07:50:49;;;;;;;17.23;6.38;;;;;;;6.83;85.37;100381.47;5087007;28;20071;-65
2023/01/13 07:53:14;;;;;;;21.23;7.03;;;;;;;6.95;84.51;100387.03;5076101;28;20027;-65
2023/01/13 07:55:41;;;;;;;18.10;6.68;;;;;;;6.90;85.01;100381.97;5076266;28;20032;-65
2023/01/13 07:58:08;;;;;;;20.48;6.47;;;;;;;6.89;85.66;100395.31;5108123;28;20099;-65
2023/01/13 08:00:34;;;;;;;17.00;6.60;;;;;;;6.89;85.55;100403.22;5114285;28;20034;-66
2023/01/13 08:03:00;;;;;;;20.83;6.60;;;;;;;6.88;86.10;100406.78;5107163;28;20031;-65
2023/01/13 08:05:25;;;;;;;21.00;6.93;;;;;;;6.83;86.54;100396.50;5094122;28;20119;-66
2023/01/13 08:07:51;;;;;;;21.88;6.68;;;;;;;6.88;86.74;100396.22;5093012;28;20039;-65
2023/01/13 08:10:17;;;;;;;22.88;7.07;;;;;;;6.82;86.75;100385.06;5094694;28;20023;-65
2023/01/13 08:15:28;;;;;;;24.42;7.38;;;;;;;6.85;86.31;100404.31;5083080;28;20050;-65
2023/01/13 08:17:54;;;;;;;21.15;8.57;;;;;;;6.85;86.77;100418.38;5113139;28;20146;-65
2023/01/13 08:20:20;;;;;;;20.17;7.97;;;;;;;6.84;86.94;100400.81;5112734;28;20031;-66
2023/01/13 08:22:45;;;;;;;22.70;7.32;;;;;;;6.95;86.31;100393.16;5113231;28;20533;-65
2023/01/13 08:25:12;;;;;;;23.35;8.13;;;;;;;6.92;86.51;100406.56;5077461;28;20053;-66
2023/01/13 08:27:37;;;;;;;27.02;8.30;;;;;;;6.86;86.87;100400.75;5081784;28;20031;-65
2023/01/13 08:30:04;;;;;;;21.33;8.05;;;;;;;6.93;86.80;100410.03;5093889;28;20148;-65
2023/01/13 08:32:29;;;;;;;28.55;8.52;;;;;;;6.87;87.95;100405.09;5112274;28;20035;-65
2023/01/13 08:34:55;;;;;;;24.08;8.77;;;;;;;6.89;86.98;100400.59;5090948;28;20043;-65
2023/01/13 08:37:21;;;;;;;27.58;7.68;;;;;;;6.83;87.67;100388.56;5082662;28;20027;-66
2023/01/13 08:39:49;;;;;;;25.38;7.60;;;;;;;6.90;87.86;100392.56;5093565;28;20106;-65
2023/01/13 08:42:15;;;;;;;25.02;7.43;;;;;;;6.91;87.49;100410.16;5111438;28;20061;-62
2023/01/13 08:44:40;;;;;;;23.65;7.70;;;;;;;6.98;87.38;100400.06;5073946;28;20115;-61
2023/01/13 08:47:06;;;;;;;26.35;8.10;;;;;;;7.03;86.86;100401.53;5070830;28;20379;-62
2023/01/13 08:49:32;;;;;;;25.55;7.68;;;;;;;7.12;86.88;100408.09;5097983;28;20038;-63
2023/01/13 08:51:57;;;;;;;22.38;7.90;;;;;;;7.22;85.74;100406.63;5084141;28;20040;-62
2023/01/13 08:54:23;;;;;;;23.20;7.68;;;;;;;7.23;86.52;100405.69;5093124;28;20035;-62
2023/01/13 08:56:48;;;;;;;30.13;9.50;;;;;;;7.31;85.11;100415.00;5094369;28;20027;-62
2023/01/13 08:59:15;;;;;;;23.45;7.43;;;;;;;7.39;84.42;100423.34;5106499;28;20169;-62
2023/01/13 09:01:41;;;;;;;25.45;7.82;;;;;;;7.43;85.02;100417.78;5105505;28;20062;-62
2023/01/13 09:04:16;;;;;;;25.80;8.45;;;;;;;7.47;84.67;100421.97;5103727;28;20486;-62
2023/01/13 09:06:42;;;;;;;26.92;8.90;;;;;;;7.39;84.85;100408.34;5093282;28;20023;-62
2023/01/13 09:09:10;;;;;;;22.80;7.20;;;;;;;7.46;84.13;100427.34;5107358;28;20497;-61
2023/01/13 09:14:27;;;;;;;27.95;7.85;;;;;;;7.49;83.33;100422.72;5111896;28;20042;-62
2023/01/13 09:16:53;;;;;;;22.00;8.73;;;;;;;7.43;83.00;100417.78;5112117;28;20517;-62
2023/01/13 09:19:22;;;;;;;29.92;8.57;;;;;;;7.47;83.03;100402.59;5093430;28;20027;-62
2023/01/13 09:21:47;;;;;;;23.30;7.43;;;;;;;7.55;82.47;100442.69;5103801;28;20039;-60
2023/01/13 09:24:13;;;;;;;29.92;8.55;;;;;;;7.58;82.76;100434.56;5083158;28;20063;-63
2023/01/13 09:26:39;;;;;;;22.15;7.50;;;;;;;7.62;81.94;100444.06;5092270;28;20032;-61
2023/01/13 09:29:04;;;;;;;26.92;10.02;;;;;;;7.78;81.24;100459.91;5093296;28;20076;-61
2023/01/13 09:31:33;;;;;;;30.08;8.13;;;;;;;7.91;81.57;100458.28;5106917;28;20085;-62
2023/01/13 09:36:46;;;;;;;26.73;8.50;;;;;;;7.88;79.67;100462.88;5102827;28;20033;-63
2023/01/13 09:39:12;;;;;;;27.88;7.70;;;;;;;7.83;81.10;100471.09;5085281;28;20032;-63
2023/01/13 09:45:04;;;;;;;26.10;7.85;;;;;;;7.90;81.39;100479.53;5094075;28;20043;-63
2023/01/13 09:47:37;;;;;;;23.70;7.20;;;;;;;7.79;80.79;100477.47;5089029;28;20024;-63
2023/01/13 09:50:14;;;;;;;25.30;8.65;;;;;;;7.85;81.21;100479.81;5109962;28;20023;-62
2023/01/13 09:52:41;;;;;;;24.08;7.22;;;;;;;7.77;80.98;100471.44;5111879;28;20027;-63
2023/01/13 09:55:15;;;;;;;24.75;7.88;;;;;;;7.80;82.81;100475.72;5093569;28;20082;-63
2023/01/13 09:57:43;;;;;;;26.90;7.65;;;;;;;7.77;81.27;100503.22;5111720;28;20390;-63
2023/01/13 10:00:43;;;;;;;28.20;7.53;;;;;;;7.80;82.73;100488.94;5109746;27;20027;-63
2023/01/13 10:03:22;;;;;;;27.77;7.18;;;;;;;7.79;82.63;100489.88;5081007;28;20122;-62
2023/01/13 10:05:56;;;;;;;29.65;8.35;;;;;;;7.73;82.57;100481.38;5096287;28;20036;-63
2023/01/13 10:08:26;;;;;;;25.77;8.52;;;;;;;7.78;82.14;100469.66;5107724;28;20024;-63
2023/01/13 10:14:24;;;;;;;22.95;7.38;;;;;;;7.96;81.28;100485.31;5099603;28;20091;-63
2023/01/13 10:17:10;;;;;;;24.95;7.68;;;;;;;8.07;81.66;100497.09;5071246;28;20046;-63
2023/01/13 10:20:11;;;;;;;30.48;8.02;;;;;;;8.16;81.41;100492.09;5091503;28;20035;-63
2023/01/13 10:22:51;;;;;;;30.50;7.57;;;;;;;8.28;81.31;100495.81;5051831;28;20066;-63
2023/01/13 10:26:06;;;;;;;26.85;7.68;;;;;;;8.48;81.34;100497.31;5090753;28;20081;-63
2023/01/13 10:28:31;;;;;;;26.65;7.28;;;;;;;8.31;80.95;100508.88;5046172;28;20089;-62
2023/01/13 10:30:58;;;;;;;33.50;7.93;;;;;;;8.23;84.61;100500.53;5092865;28;20471;-63
2023/01/13 10:33:27;;;;;;;29.63;8.07;;;;;;;8.14;84.96;100517.81;5111317;28;20073;-63
2023/01/13 10:36:13;;;;;;;30.20;6.80;;;;;;;8.03;86.91;100522.03;5111501;28;20031;-63
2023/01/13 10:38:39;;;;;;;35.72;8.52;;;;;;;7.92;86.61;100530.59;5111279;28;20024;-63
2023/01/13 10:41:18;;;;;;;33.30;7.88;;;;;;;7.85;86.30;100532.75;5105567;28;20081;-62
2023/01/13 10:44:04;;;;;;;25.85;6.72;;;;;;;7.73;88.28;100544.00;5068662;28;20044;-63
2023/01/13 10:46:32;;;;;;;25.23;8.02;;;;;;;7.63;89.86;100543.69;5068927;28;20428;-63
2023/01/13 10:49:00;;;;;;;27.58;7.97;;;;;;;7.53;90.54;100554.84;5051988;28;20041;-63
2023/01/13 10:51:38;;;;;;;27.40;7.90;;;;;;;7.55;91.62;100550.34;5068120;28;20052;-63
2023/01/13 10:54:12;;;;;;;25.55;7.85;;;;;;;7.47;93.12;100556.03;5068196;28;20136;-62
2023/01/13 10:56:39;;;;;;;28.23;7.85;;;;;;;7.39;92.90;100547.69;5055813;28;20028;-62
2023/01/13 10:59:22;;;;;;;31.70;8.02;;;;;;;7.60;92.49;100546.50;5072477;28;20492;-62
2023/01/13 11:02:07;;;;;;;26.65;7.85;;;;;;;7.42;94.08;100544.88;5072180;28;20028;-63
2023/01/13 11:04:39;;;;;;;31.98;8.57;;;;;;;7.41;93.56;100543.16;5072435;28;20033;-63
2023/01/13 11:07:19;;;;;;;25.38;7.50;;;;;;;7.49;91.44;100543.59;5072340;28;20028;-63
2023/01/13 11:09:45;;;;;;;23.90;7.25;;;;;;;7.49;91.60;100548.88;5071843;28;20038;-62
2023/01/13 11:12:33;;;;;;;28.13;7.15;;;;;;;7.50;90.57;100543.53;5055639;28;20584;-63
2023/01/13 11:15:08;;;;;;;21.30;8.10;;;;;;;7.49;91.71;100544.44;5072264;28;20040;-63
2023/01/13 11:17:40;;;;;;;27.63;7.80;;;;;;;7.50;90.24;100542.69;5093249;28;20081;-63
2023/01/13 11:20:30;;;;;;;26.10;7.53;;;;;;;7.54;88.83;100553.94;5095380;28;20888;-62
2023/01/13 11:22:58;;;;;;;24.67;7.25;;;;;;;7.49;89.15;100536.50;5094475;28;20085;-62
2023/01/13 11:25:34;;;;;;;28.20;8.13;;;;;;;7.66;87.27;100554.09;5093787;28;20500;-63
2023/01/13 11:28:24;;;;;;;26.63;7.65;;;;;;;7.70;87.86;100560.06;5094455;28;20035;-63
2023/01/13 11:30:59;;;;;;;25.92;7.82;;;;;;;7.73;88.06;100566.06;5108207;28;20051;-63
2023/01/13 11:33:58;;;;;;;29.63;7.90;;;;;;;7.83;87.08;100568.19;5114515;28;20019;-63
2023/01/13 11:36:33;;;;;;;23.05;7.57;;;;;;;7.86;86.25;100568.03;5114857;28;20035;-63
2023/01/13 11:39:24;;;;;;;29.67;8.40;;;;;;;7.84;87.23;100568.09;5114390;28;20447;-63
2023/01/13 11:44:54;;;;;;;23.65;8.02;;;;;;;7.87;85.74;100581.16;5094206;28;20461;-63
2023/01/13 11:47:25;;;;;;;26.23;7.47;;;;;;;7.79;85.30;100567.50;5094132;28;20035;-63
2023/01/13 11:49:51;;;;;;;28.80;7.57;;;;;;;7.88;84.65;100582.00;5095578;28;20405;-63
2023/01/13 11:52:32;;;;;;;28.30;7.20;;;;;;;7.89;86.27;100581.09;5092476;28;20056;-63
2023/01/13 11:55:06;;;;;;;34.25;7.72;;;;;;;7.90;85.32;100585.44;5093629;28;20031;-63
2023/01/13 11:57:55;;;;;;;27.90;7.97;;;;;;;7.89;85.78;100589.03;5094012;28;20038;-63
2023/01/13 12:00:31;;;;;;;20.80;7.07;;;;;;;7.97;85.42;100584.13;5092096;28;20139;-63
2023/01/13 12:03:00;;;;;;;23.42;6.68;;;;;;;7.99;84.37;100592.00;5092448;28;20016;-63
2023/01/13 12:05:43;;;;;;;21.38;6.65;;;;;;;7.98;83.43;100596.47;5093612;28;20108;-63
2023/01/13 12:08:22;;;;;;;29.63;6.68;;;;;;;8.03;83.97;100597.06;5091643;28;20497;-63
2023/01/13 12:10:56;;;;;;;25.42;6.80;;;;;;;7.99;82.51;100608.75;5074253;28;20032;-63
2023/01/13 12:13:49;;;;;;;19.92;7.28;;;;;;;7.99;82.60;100610.53;5073099;28;20028;-63
2023/01/13 12:16:22;;;;;;;21.30;6.45;;;;;;;8.03;82.52;100610.31;5073286;28;20027;-61
2023/01/13 12:18:47;;;;;;;21.88;6.07;;;;;;;8.07;81.53;100597.72;5072943;28;20024;-62
2023/01/13 12:21:22;;;;;;;19.67;7.05;;;;;;;8.04;81.71;100606.69;5074366;28;20032;-62
2023/01/13 12:24:00;;;;;;;20.42;6.75;;;;;;;8.09;80.69;100606.44;5071523;28;20025;-62
2023/01/13 12:26:30;;;;;;;21.75;6.80;;;;;;;8.10;79.99;100613.44;5071722;28;20384;-62
2023/01/13 12:29:25;;;;;;;23.17;7.05;;;;;;;8.11;80.49;100625.75;5077375;28;20035;-62
2023/01/13 12:31:51;;;;;;;26.45;6.93;;;;;;;8.14;79.92;100622.91;5093092;28;20027;-63
2023/01/13 12:34:25;;;;;;;23.98;6.45;;;;;;;8.16;79.67;100623.69;5091925;28;20066;-62
2023/01/13 12:36:57;;;;;;;22.25;6.68;;;;;;;8.17;80.00;100612.16;5092112;28;20024;-62
2023/01/13 12:39:56;;;;;;;24.88;6.68;;;;;;;8.11;79.97;100618.66;5087796;28;20020;-62